sensor_id;sensor_type;location;lat;lon;timestamp;pressure;altitude;pressure_sealevel;temperature;humidity
2178;BME280;1095;50.992;6.798;2024-03-08T00:04:36;101202.16;;;3.10;66.88
2178;BME280;1095;50.992;6.798;2024-03-08T00:05:04;101209.03;;;3.13;66.89
2178;BME280;1095;50.992;6.798;2024-03-08T00:07:33;101197.66;;;3.14;66.98
2178;BME280;1095;50.992;6.798;2024-03-08T00:10:13;101191.84;;;3.07;66.96
2178;BME280;1095;50.992;6.798;2024-03-08T00:12:51;101190.25;;;3.04;67.21
2178;BME280;1095;50.992;6.798;2024-03-08T00:18:39;101187.63;;;3.04;67.14
2178;BME280;1095;50.992;6.798;2024-03-08T00:21:22;101185.84;;;3.05;67.09
2178;BME280;1095;50.992;6.798;2024-03-08T00:24:45;101187.84;;;3.00;67.07
2178;BME280;1095;50.992;6.798;2024-03-08T00:27:50;101178.22;;;3.00;67.08
2178;BME280;1095;50.992;6.798;2024-03-08T00:34:21;101176.41;;;2.84;67.64
2178;BME280;1095;50.992;6.798;2024-03-08T00:36:56;101176.31;;;2.85;67.83
2178;BME280;1095;50.992;6.798;2024-03-08T00:39:39;101174.97;;;2.76;68.11
2178;BME280;1095;50.992;6.798;2024-03-08T00:42:18;101172.44;;;2.75;68.50
2178;BME280;1095;50.992;6.798;2024-03-08T00:45:00;101172.31;;;2.78;68.43
2178;BME280;1095;50.992;6.798;2024-03-08T00:47:28;101170.88;;;2.71;68.63
2178;BME280;1095;50.992;6.798;2024-03-08T00:49:55;101166.59;;;2.70;68.79
2178;BME280;1095;50.992;6.798;2024-03-08T00:52:25;101154.50;;;2.67;68.75
2178;BME280;1095;50.992;6.798;2024-03-08T00:54:51;101160.84;;;2.62;68.92
2178;BME280;1095;50.992;6.798;2024-03-08T00:57:18;101162.75;;;2.58;69.24
2178;BME280;1095;50.992;6.798;2024-03-08T00:59:45;101158.53;;;2.56;69.57
2178;BME280;1095;50.992;6.798;2024-03-08T01:02:13;101160.22;;;2.57;69.06
2178;BME280;1095;50.992;6.798;2024-03-08T01:04:42;101160.31;;;2.55;69.53
2178;BME280;1095;50.992;6.798;2024-03-08T01:07:09;101157.22;;;2.45;69.64
2178;BME280;1095;50.992;6.798;2024-03-08T01:09:35;101151.53;;;2.37;69.79
2178;BME280;1095;50.992;6.798;2024-03-08T01:12:02;101151.44;;;2.39;69.39
2178;BME280;1095;50.992;6.798;2024-03-08T01:14:29;101154.16;;;2.37;69.87
2178;BME280;1095;50.992;6.798;2024-03-08T01:16:56;101153.34;;;2.35;70.19
2178;BME280;1095;50.992;6.798;2024-03-08T01:19:24;101146.72;;;2.28;70.47
2178;BME280;1095;50.992;6.798;2024-03-08T01:21:50;101143.03;;;2.32;70.33
2178;BME280;1095;50.992;6.798;2024-03-08T01:24:17;101134.72;;;2.24;70.73
2178;BME280;1095;50.992;6.798;2024-03-08T01:26:44;101140.63;;;2.27;70.35
2178;BME280;1095;50.992;6.798;2024-03-08T01:29:12;101120.44;;;2.31;69.88
2178;BME280;1095;50.992;6.798;2024-03-08T01:31:39;101125.03;;;2.26;69.94
2178;BME280;1095;50.992;6.798;2024-03-08T01:34:05;101120.66;;;2.26;69.73
2178;BME280;1095;50.992;6.798;2024-03-08T01:36:33;101120.88;;;2.22;70.43
2178;BME280;1095;50.992;6.798;2024-03-08T01:39:02;101115.66;;;2.22;69.98
2178;BME280;1095;50.992;6.798;2024-03-08T01:41:33;101116.44;;;2.24;70.01
2178;BME280;1095;50.992;6.798;2024-03-08T01:44:00;101112.09;;;2.23;69.91
2178;BME280;1095;50.992;6.798;2024-03-08T01:46:27;101114.16;;;2.16;70.40
2178;BME280;1095;50.992;6.798;2024-03-08T01:48:55;101107.47;;;2.11;70.95
2178;BME280;1095;50.992;6.798;2024-03-08T01:51:23;101099.63;;;2.11;70.42
2178;BME280;1095;50.992;6.798;2024-03-08T01:53:51;101100.69;;;2.07;71.14
2178;BME280;1095;50.992;6.798;2024-03-08T01:56:18;101101.59;;;2.06;70.73
2178;BME280;1095;50.992;6.798;2024-03-08T01:58:45;101099.88;;;2.05;71.09
2178;BME280;1095;50.992;6.798;2024-03-08T02:01:16;101089.84;;;1.95;71.53
2178;BME280;1095;50.992;6.798;2024-03-08T02:03:44;101097.84;;;1.92;71.98
2178;BME280;1095;50.992;6.798;2024-03-08T02:06:12;101095.16;;;1.94;71.50
2178;BME280;1095;50.992;6.798;2024-03-08T02:08:44;101085.22;;;2.02;71.12
2178;BME280;1095;50.992;6.798;2024-03-08T02:11:12;101086.19;;;1.99;71.33
2178;BME280;1095;50.992;6.798;2024-03-08T02:13:41;101080.34;;;1.94;71.53
2178;BME280;1095;50.992;6.798;2024-03-08T02:16:08;101082.09;;;1.94;71.88
2178;BME280;1095;50.992;6.798;2024-03-08T02:18:35;101075.72;;;2.01;70.99
2178;BME280;1095;50.992;6.798;2024-03-08T02:21:04;101077.81;;;1.93;71.43
2178;BME280;1095;50.992;6.798;2024-03-08T02:23:31;101071.59;;;1.95;71.28
2178;BME280;1095;50.992;6.798;2024-03-08T02:25:58;101064.81;;;1.91;71.73
2178;BME280;1095;50.992;6.798;2024-03-08T02:28:25;101066.78;;;1.86;72.27
2178;BME280;1095;50.992;6.798;2024-03-08T02:30:53;101077.22;;;1.86;72.39
2178;BME280;1095;50.992;6.798;2024-03-08T02:33:21;101062.41;;;1.87;72.30
2178;BME280;1095;50.992;6.798;2024-03-08T02:35:49;101066.66;;;1.89;72.27
2178;BME280;1095;50.992;6.798;2024-03-08T02:38:19;101056.22;;;1.89;72.24
2178;BME280;1095;50.992;6.798;2024-03-08T02:40:49;101054.78;;;1.82;72.61
2178;BME280;1095;50.992;6.798;2024-03-08T02:43:17;101054.06;;;1.78;72.68
2178;BME280;1095;50.992;6.798;2024-03-08T02:45:44;101056.75;;;1.77;72.44
2178;BME280;1095;50.992;6.798;2024-03-08T02:48:12;101054.94;;;1.79;72.54
2178;BME280;1095;50.992;6.798;2024-03-08T02:50:39;101048.66;;;1.83;72.82
2178;BME280;1095;50.992;6.798;2024-03-08T02:53:08;101052.16;;;1.82;72.40
2178;BME280;1095;50.992;6.798;2024-03-08T02:55:36;101049.72;;;1.79;72.94
2178;BME280;1095;50.992;6.798;2024-03-08T02:58:03;101051.41;;;1.80;72.67
2178;BME280;1095;50.992;6.798;2024-03-08T03:00:30;101039.41;;;1.76;73.16
2178;BME280;1095;50.992;6.798;2024-03-08T03:02:57;101053.28;;;1.76;72.90
2178;BME280;1095;50.992;6.798;2024-03-08T03:05:24;101047.94;;;1.80;72.60
2178;BME280;1095;50.992;6.798;2024-03-08T03:07:51;101046.38;;;1.75;72.36
2178;BME280;1095;50.992;6.798;2024-03-08T03:10:19;101042.78;;;1.78;72.20
2178;BME280;1095;50.992;6.798;2024-03-08T03:12:48;101042.78;;;1.78;72.20
2178;BME280;1095;50.992;6.798;2024-03-08T03:15:15;101036.00;;;1.74;72.55
2178;BME280;1095;50.992;6.798;2024-03-08T03:17:46;101036.78;;;1.76;72.16
2178;BME280;1095;50.992;6.798;2024-03-08T03:20:14;101027.28;;;1.75;72.54
2178;BME280;1095;50.992;6.798;2024-03-08T03:22:48;101027.47;;;1.70;72.79
2178;BME280;1095;50.992;6.798;2024-03-08T03:25:19;101024.50;;;1.78;72.13
2178;BME280;1095;50.992;6.798;2024-03-08T03:27:52;101022.06;;;1.75;72.21
2178;BME280;1095;50.992;6.798;2024-03-08T03:30:21;101015.84;;;1.77;72.24
2178;BME280;1095;50.992;6.798;2024-03-08T03:32:48;101023.88;;;1.73;72.75
2178;BME280;1095;50.992;6.798;2024-03-08T03:35:16;101018.94;;;1.67;72.88
2178;BME280;1095;50.992;6.798;2024-03-08T03:37:43;101020.91;;;1.62;72.99
2178;BME280;1095;50.992;6.798;2024-03-08T03:40:16;101022.47;;;1.66;72.76
2178;BME280;1095;50.992;6.798;2024-03-08T03:42:44;101019.34;;;1.58;72.98
2178;BME280;1095;50.992;6.798;2024-03-08T03:45:13;101021.94;;;1.58;72.85
2178;BME280;1095;50.992;6.798;2024-03-08T03:47:45;101023.34;;;1.65;72.94
2178;BME280;1095;50.992;6.798;2024-03-08T03:50:12;101016.53;;;1.62;72.83
2178;BME280;1095;50.992;6.798;2024-03-08T03:52:38;101017.78;;;1.54;73.13
2178;BME280;1095;50.992;6.798;2024-03-08T03:55:05;101009.97;;;1.54;73.26
2178;BME280;1095;50.992;6.798;2024-03-08T03:57:33;101017.66;;;1.57;73.11
2178;BME280;1095;50.992;6.798;2024-03-08T04:00:00;101013.97;;;1.61;72.83
2178;BME280;1095;50.992;6.798;2024-03-08T04:02:29;101010.03;;;1.52;72.94
2178;BME280;1095;50.992;6.798;2024-03-08T04:04:56;101009.56;;;1.63;72.90
2178;BME280;1095;50.992;6.798;2024-03-08T04:07:22;101003.53;;;1.61;72.65
2178;BME280;1095;50.992;6.798;2024-03-08T04:09:50;101002.44;;;1.66;72.36
2178;BME280;1095;50.992;6.798;2024-03-08T04:12:16;101001.72;;;1.63;72.64
2178;BME280;1095;50.992;6.798;2024-03-08T04:14:43;101001.13;;;1.56;72.71
2178;BME280;1095;50.992;6.798;2024-03-08T04:17:10;100995.06;;;1.56;72.68
2178;BME280;1095;50.992;6.798;2024-03-08T04:19:38;101001.72;;;1.63;72.60
2178;BME280;1095;50.992;6.798;2024-03-08T04:22:05;100994.66;;;1.65;72.66
2178;BME280;1095;50.992;6.798;2024-03-08T04:24:35;101001.31;;;1.72;71.70
2178;BME280;1095;50.992;6.798;2024-03-08T04:27:02;100990.16;;;1.68;72.22
2178;BME280;1095;50.992;6.798;2024-03-08T04:29:29;100989.41;;;1.66;72.14
2178;BME280;1095;50.992;6.798;2024-03-08T04:31:57;100991.16;;;1.66;72.21
2178;BME280;1095;50.992;6.798;2024-03-08T04:34:25;100991.22;;;1.64;72.28
2178;BME280;1095;50.992;6.798;2024-03-08T04:36:56;100987.97;;;1.59;72.63
2178;BME280;1095;50.992;6.798;2024-03-08T04:39:23;100984.38;;;1.62;72.51
2178;BME280;1095;50.992;6.798;2024-03-08T04:41:53;100990.56;;;1.59;72.64
2178;BME280;1095;50.992;6.798;2024-03-08T04:44:22;100986.50;;;1.54;72.93
2178;BME280;1095;50.992;6.798;2024-03-08T04:46:49;100984.22;;;1.46;73.05
2178;BME280;1095;50.992;6.798;2024-03-08T04:49:16;100978.16;;;1.45;73.72
2178;BME280;1095;50.992;6.798;2024-03-08T04:51:43;100980.13;;;1.40;73.36
2178;BME280;1095;50.992;6.798;2024-03-08T04:54:15;100976.91;;;1.34;73.71
2178;BME280;1095;50.992;6.798;2024-03-08T04:56:41;100974.38;;;1.32;73.85
2178;BME280;1095;50.992;6.798;2024-03-08T04:59:08;100975.31;;;1.31;74.07
2178;BME280;1095;50.992;6.798;2024-03-08T05:01:35;100974.88;;;1.21;74.47
2178;BME280;1095;50.992;6.798;2024-03-08T05:04:01;100963.63;;;1.19;74.45
2178;BME280;1095;50.992;6.798;2024-03-08T05:06:28;100963.72;;;1.18;74.85
2178;BME280;1095;50.992;6.798;2024-03-08T05:08:55;100959.53;;;1.34;73.98
2178;BME280;1095;50.992;6.798;2024-03-08T05:11:23;100954.25;;;1.36;73.71
2178;BME280;1095;50.992;6.798;2024-03-08T05:13:50;100956.13;;;1.32;74.18
2178;BME280;1095;50.992;6.798;2024-03-08T05:16:17;100949.47;;;1.25;74.25
2178;BME280;1095;50.992;6.798;2024-03-08T05:18:43;100951.31;;;1.23;74.62
2178;BME280;1095;50.992;6.798;2024-03-08T05:21:12;100949.88;;;1.16;74.65
2178;BME280;1095;50.992;6.798;2024-03-08T05:23:38;100948.72;;;1.23;74.43
2178;BME280;1095;50.992;6.798;2024-03-08T05:26:05;100946.81;;;1.26;74.33
2178;BME280;1095;50.992;6.798;2024-03-08T05:28:33;100946.03;;;1.24;74.31
2178;BME280;1095;50.992;6.798;2024-03-08T05:31:00;100949.63;;;1.22;74.31
2178;BME280;1095;50.992;6.798;2024-03-08T05:33:26;100947.94;;;1.21;74.59
2178;BME280;1095;50.992;6.798;2024-03-08T05:35:55;100948.63;;;1.24;74.12
2178;BME280;1095;50.992;6.798;2024-03-08T05:38:22;100947.94;;;1.21;74.96
2178;BME280;1095;50.992;6.798;2024-03-08T05:40:49;100951.59;;;1.17;74.89
2178;BME280;1095;50.992;6.798;2024-03-08T05:43:16;100950.69;;;1.18;74.84
2178;BME280;1095;50.992;6.798;2024-03-08T05:49:30;100941.97;;;1.38;73.96
2178;BME280;1095;50.992;6.798;2024-03-08T05:55:34;100923.41;;;1.25;74.19
2178;BME280;1095;50.992;6.798;2024-03-08T05:58:09;100919.44;;;1.37;74.00
2178;BME280;1095;50.992;6.798;2024-03-08T06:01:18;100925.06;;;1.46;73.30
2178;BME280;1095;50.992;6.798;2024-03-08T06:04:18;100927.75;;;1.45;73.79
2178;BME280;1095;50.992;6.798;2024-03-08T06:09:32;100925.88;;;1.48;73.70
2178;BME280;1095;50.992;6.798;2024-03-08T06:11:59;100919.66;;;1.51;73.40
2178;BME280;1095;50.992;6.798;2024-03-08T06:14:27;100927.25;;;1.56;73.56
2178;BME280;1095;50.992;6.798;2024-03-08T06:16:53;100925.28;;;1.61;72.89
2178;BME280;1095;50.992;6.798;2024-03-08T06:19:22;100930.78;;;1.55;73.78
2178;BME280;1095;50.992;6.798;2024-03-08T06:21:48;100919.66;;;1.51;73.67
2178;BME280;1095;50.992;6.798;2024-03-08T06:24:15;100920.03;;;1.62;73.25
2178;BME280;1095;50.992;6.798;2024-03-08T06:26:43;100922.03;;;1.56;73.44
2178;BME280;1095;50.992;6.798;2024-03-08T06:29:09;100920.38;;;1.55;73.49
2178;BME280;1095;50.992;6.798;2024-03-08T06:31:36;100914.19;;;1.57;73.57
2178;BME280;1095;50.992;6.798;2024-03-08T06:34:04;100913.03;;;1.63;73.44
2178;BME280;1095;50.992;6.798;2024-03-08T06:36:34;100916.41;;;1.65;73.52
2178;BME280;1095;50.992;6.798;2024-03-08T06:39:03;100918.97;;;1.66;73.46
2178;BME280;1095;50.992;6.798;2024-03-08T06:41:35;100906.22;;;1.79;72.72
2178;BME280;1095;50.992;6.798;2024-03-08T06:44:02;100908.41;;;2.24;71.70
2178;BME280;1095;50.992;6.798;2024-03-08T06:46:28;100909.06;;;2.64;70.00
2178;BME280;1095;50.992;6.798;2024-03-08T06:48:55;100909.94;;;2.81;68.75
2178;BME280;1095;50.992;6.798;2024-03-08T06:51:22;100901.00;;;3.02;68.01
2178;BME280;1095;50.992;6.798;2024-03-08T06:53:50;100901.91;;;3.18;67.63
2178;BME280;1095;50.992;6.798;2024-03-08T06:56:18;100900.38;;;3.47;66.20
2178;BME280;1095;50.992;6.798;2024-03-08T06:58:45;100904.03;;;3.92;65.14
2178;BME280;1095;50.992;6.798;2024-03-08T07:01:13;100899.78;;;4.05;64.30
2178;BME280;1095;50.992;6.798;2024-03-08T07:03:41;100902.56;;;3.55;65.46
2178;BME280;1095;50.992;6.798;2024-03-08T07:06:09;100903.31;;;3.57;65.85
2178;BME280;1095;50.992;6.798;2024-03-08T07:08:36;100902.59;;;3.87;64.86
2178;BME280;1095;50.992;6.798;2024-03-08T07:11:04;100897.91;;;4.39;62.87
2178;BME280;1095;50.992;6.798;2024-03-08T07:13:31;100898.59;;;4.27;63.28
2178;BME280;1095;50.992;6.798;2024-03-08T07:15:57;100894.94;;;4.60;61.63
2178;BME280;1095;50.992;6.798;2024-03-08T07:18:26;100903.19;;;4.53;62.05
2178;BME280;1095;50.992;6.798;2024-03-08T07:20:55;100894.94;;;4.60;62.14
2178;BME280;1095;50.992;6.798;2024-03-08T07:23:21;100880.78;;;4.78;61.62
2178;BME280;1095;50.992;6.798;2024-03-08T07:26:04;100881.00;;;4.59;61.63
2178;BME280;1095;50.992;6.798;2024-03-08T07:28:30;100872.09;;;5.20;60.40
2178;BME280;1095;50.992;6.798;2024-03-08T07:30:57;100869.84;;;5.28;59.86
2178;BME280;1095;50.992;6.798;2024-03-08T07:33:37;100865.34;;;5.16;60.20
2178;BME280;1095;50.992;6.798;2024-03-08T07:36:04;100857.59;;;5.15;59.69
2178;BME280;1095;50.992;6.798;2024-03-08T07:38:31;100867.31;;;4.98;60.74
2178;BME280;1095;50.992;6.798;2024-03-08T07:40:58;100853.75;;;5.06;60.88
2178;BME280;1095;50.992;6.798;2024-03-08T07:43:26;100852.69;;;5.08;60.20
2178;BME280;1095;50.992;6.798;2024-03-08T07:45:53;100853.72;;;5.20;60.91
2178;BME280;1095;50.992;6.798;2024-03-08T07:48:20;100852.56;;;5.53;59.79
2178;BME280;1095;50.992;6.798;2024-03-08T07:50:47;100847.56;;;5.77;59.21
2178;BME280;1095;50.992;6.798;2024-03-08T07:53:15;100850.38;;;5.32;59.63
2178;BME280;1095;50.992;6.798;2024-03-08T07:55:42;100843.34;;;5.74;60.19
2178;BME280;1095;50.992;6.798;2024-03-08T07:58:26;100839.69;;;5.77;58.88
2178;BME280;1095;50.992;6.798;2024-03-08T08:04:17;100829.22;;;5.63;59.07
2178;BME280;1095;50.992;6.798;2024-03-08T08:06:45;100826.19;;;5.69;59.23
2178;BME280;1095;50.992;6.798;2024-03-08T08:09:12;100826.13;;;5.97;57.84
2178;BME280;1095;50.992;6.798;2024-03-08T08:11:40;100812.72;;;5.61;59.33
2178;BME280;1095;50.992;6.798;2024-03-08T08:14:08;100820.19;;;5.67;59.21
2178;BME280;1095;50.992;6.798;2024-03-08T08:16:35;100814.13;;;5.93;58.91
2178;BME280;1095;50.992;6.798;2024-03-08T08:19:02;100810.81;;;6.04;58.23
2178;BME280;1095;50.992;6.798;2024-03-08T08:21:34;100807.34;;;6.03;58.57
2178;BME280;1095;50.992;6.798;2024-03-08T08:24:02;100799.50;;;6.29;58.21
2178;BME280;1095;50.992;6.798;2024-03-08T08:26:29;100791.78;;;6.00;58.60
2178;BME280;1095;50.992;6.798;2024-03-08T08:28:55;100790.09;;;6.39;57.25
2178;BME280;1095;50.992;6.798;2024-03-08T08:31:22;100787.38;;;6.53;57.03
2178;BME280;1095;50.992;6.798;2024-03-08T08:33:48;100779.78;;;6.62;57.01
2178;BME280;1095;50.992;6.798;2024-03-08T08:36:15;100777.78;;;6.91;56.93
2178;BME280;1095;50.992;6.798;2024-03-08T08:38:43;100775.56;;;6.46;56.93
2178;BME280;1095;50.992;6.798;2024-03-08T08:41:11;100776.63;;;6.31;56.77
2178;BME280;1095;50.992;6.798;2024-03-08T08:43:38;100771.03;;;6.23;57.34
2178;BME280;1095;50.992;6.798;2024-03-08T08:46:04;100763.69;;;6.41;57.53
2178;BME280;1095;50.992;6.798;2024-03-08T08:48:31;100761.38;;;6.36;57.55
2178;BME280;1095;50.992;6.798;2024-03-08T08:50:58;100756.94;;;6.24;58.11
2178;BME280;1095;50.992;6.798;2024-03-08T08:53:25;100756.84;;;6.38;57.85
2178;BME280;1095;50.992;6.798;2024-03-08T08:55:53;100766.97;;;6.57;57.64
2178;BME280;1095;50.992;6.798;2024-03-08T08:58:19;100754.84;;;6.42;57.47
2178;BME280;1095;50.992;6.798;2024-03-08T09:00:46;100753.28;;;6.52;56.87
2178;BME280;1095;50.992;6.798;2024-03-08T09:03:12;100746.25;;;6.52;56.81
2178;BME280;1095;50.992;6.798;2024-03-08T09:05:39;100743.63;;;6.52;56.36
2178;BME280;1095;50.992;6.798;2024-03-08T09:08:08;100744.88;;;6.59;56.14
2178;BME280;1095;50.992;6.798;2024-03-08T09:10:35;100755.81;;;6.79;55.95
2178;BME280;1095;50.992;6.798;2024-03-08T09:13:03;100750.31;;;6.69;56.59
2178;BME280;1095;50.992;6.798;2024-03-08T09:15:30;100752.22;;;6.67;56.52
2178;BME280;1095;50.992;6.798;2024-03-08T09:17:56;100734.16;;;6.50;56.56
2178;BME280;1095;50.992;6.798;2024-03-08T09:20:24;100743.69;;;6.51;56.47
2178;BME280;1095;50.992;6.798;2024-03-08T09:22:51;100738.56;;;6.49;57.34
2178;BME280;1095;50.992;6.798;2024-03-08T09:25:17;100737.72;;;6.74;57.46
2178;BME280;1095;50.992;6.798;2024-03-08T09:27:44;100725.50;;;6.61;56.04
2178;BME280;1095;50.992;6.798;2024-03-08T09:30:13;100728.13;;;6.73;57.03
2178;BME280;1095;50.992;6.798;2024-03-08T09:32:42;100722.56;;;6.65;56.34
2178;BME280;1095;50.992;6.798;2024-03-08T09:35:09;100722.75;;;6.88;56.55
2178;BME280;1095;50.992;6.798;2024-03-08T09:37:36;100711.13;;;7.03;55.58
2178;BME280;1095;50.992;6.798;2024-03-08T09:40:05;100715.97;;;6.96;56.10
2178;BME280;1095;50.992;6.798;2024-03-08T09:42:34;100711.47;;;6.98;55.43
2178;BME280;1095;50.992;6.798;2024-03-08T09:45:05;100712.28;;;7.12;55.19
2178;BME280;1095;50.992;6.798;2024-03-08T09:47:38;100698.25;;;7.24;55.55
2178;BME280;1095;50.992;6.798;2024-03-08T09:50:08;100700.56;;;7.16;54.58
2178;BME280;1095;50.992;6.798;2024-03-08T09:52:36;100695.94;;;7.19;55.03
2178;BME280;1095;50.992;6.798;2024-03-08T09:55:04;100690.47;;;7.09;54.59
2178;BME280;1095;50.992;6.798;2024-03-08T09:57:31;100692.97;;;7.24;54.41
2178;BME280;1095;50.992;6.798;2024-03-08T09:59:58;100693.81;;;7.24;54.32
2178;BME280;1095;50.992;6.798;2024-03-08T10:02:25;100682.31;;;7.49;54.50
2178;BME280;1095;50.992;6.798;2024-03-08T10:04:53;100672.19;;;7.56;53.96
2178;BME280;1095;50.992;6.798;2024-03-08T10:07:20;100665.00;;;7.58;53.53
2178;BME280;1095;50.992;6.798;2024-03-08T10:09:47;100660.13;;;7.76;53.21
2178;BME280;1095;50.992;6.798;2024-03-08T10:12:15;100655.03;;;7.50;52.22
2178;BME280;1095;50.992;6.798;2024-03-08T10:14:42;100657.28;;;7.79;53.38
2178;BME280;1095;50.992;6.798;2024-03-08T10:17:09;100642.97;;;8.05;52.79
2178;BME280;1095;50.992;6.798;2024-03-08T10:19:36;100649.22;;;8.04;52.85
2178;BME280;1095;50.992;6.798;2024-03-08T10:22:05;100637.78;;;7.93;52.32
2178;BME280;1095;50.992;6.798;2024-03-08T10:24:32;100636.25;;;8.01;52.15
2178;BME280;1095;50.992;6.798;2024-03-08T10:27:00;100632.06;;;8.21;50.84
2178;BME280;1095;50.992;6.798;2024-03-08T10:29:30;100627.50;;;8.12;51.67
2178;BME280;1095;50.992;6.798;2024-03-08T10:31:57;100611.34;;;8.28;51.27
2178;BME280;1095;50.992;6.798;2024-03-08T10:34:24;100619.28;;;8.39;51.63
2178;BME280;1095;50.992;6.798;2024-03-08T10:36:51;100612.78;;;8.66;50.29
2178;BME280;1095;50.992;6.798;2024-03-08T10:39:22;100604.41;;;8.72;49.56
2178;BME280;1095;50.992;6.798;2024-03-08T10:41:53;100596.94;;;8.77;49.98
2178;BME280;1095;50.992;6.798;2024-03-08T10:44:36;100594.69;;;8.72;48.63
2178;BME280;1095;50.992;6.798;2024-03-08T10:47:08;100606.78;;;8.75;48.88
2178;BME280;1095;50.992;6.798;2024-03-08T10:49:39;100598.16;;;8.84;48.82
2178;BME280;1095;50.992;6.798;2024-03-08T10:52:11;100589.50;;;8.82;48.19
2178;BME280;1095;50.992;6.798;2024-03-08T10:54:40;100583.19;;;9.05;47.59
2178;BME280;1095;50.992;6.798;2024-03-08T10:57:08;100579.38;;;8.98;47.06
2178;BME280;1095;50.992;6.798;2024-03-08T10:59:36;100581.28;;;9.07;46.52
2178;BME280;1095;50.992;6.798;2024-03-08T11:02:03;100580.84;;;8.91;46.35
2178;BME280;1095;50.992;6.798;2024-03-08T11:04:31;100589.19;;;9.07;45.65
2178;BME280;1095;50.992;6.798;2024-03-08T11:07:00;100568.66;;;9.11;46.54
2178;BME280;1095;50.992;6.798;2024-03-08T11:09:29;100563.19;;;9.24;46.31
2178;BME280;1095;50.992;6.798;2024-03-08T11:12:25;100565.25;;;9.20;46.57
2178;BME280;1095;50.992;6.798;2024-03-08T11:14:55;100556.31;;;9.53;46.86
2178;BME280;1095;50.992;6.798;2024-03-08T11:17:26;100565.72;;;9.25;44.80
2178;BME280;1095;50.992;6.798;2024-03-08T11:19:55;100569.22;;;9.15;46.88
2178;BME280;1095;50.992;6.798;2024-03-08T11:22:23;100565.88;;;9.13;45.37
2178;BME280;1095;50.992;6.798;2024-03-08T11:24:52;100559.22;;;9.29;46.03
2178;BME280;1095;50.992;6.798;2024-03-08T11:27:19;100556.69;;;9.28;44.89
2178;BME280;1095;50.992;6.798;2024-03-08T11:30:01;100547.34;;;9.24;45.29
2178;BME280;1095;50.992;6.798;2024-03-08T11:32:36;100545.56;;;9.24;45.00
2178;BME280;1095;50.992;6.798;2024-03-08T11:35:06;100548.50;;;9.31;46.02
2178;BME280;1095;50.992;6.798;2024-03-08T11:37:34;100541.50;;;9.41;45.03
2178;BME280;1095;50.992;6.798;2024-03-08T11:40:01;100535.75;;;9.36;46.19
2178;BME280;1095;50.992;6.798;2024-03-08T11:42:30;100527.09;;;9.76;45.53
2178;BME280;1095;50.992;6.798;2024-03-08T11:44:57;100524.50;;;9.85;45.09
2178;BME280;1095;50.992;6.798;2024-03-08T11:47:25;100529.66;;;9.87;44.10
2178;BME280;1095;50.992;6.798;2024-03-08T11:49:52;100537.84;;;9.84;45.20
2178;BME280;1095;50.992;6.798;2024-03-08T11:52:19;100524.00;;;9.71;43.90
2178;BME280;1095;50.992;6.798;2024-03-08T11:54:51;100510.09;;;9.69;44.03
2178;BME280;1095;50.992;6.798;2024-03-08T11:57:18;100509.75;;;9.83;44.08
2178;BME280;1095;50.992;6.798;2024-03-08T11:59:49;100510.69;;;9.82;43.74
2178;BME280;1095;50.992;6.798;2024-03-08T12:02:16;100515.13;;;9.72;45.07
2178;BME280;1095;50.992;6.798;2024-03-08T12:04:55;100499.59;;;9.57;45.63
2178;BME280;1095;50.992;6.798;2024-03-08T12:07:23;100494.72;;;9.83;43.81
2178;BME280;1095;50.992;6.798;2024-03-08T12:10:14;100500.09;;;9.72;44.09
2178;BME280;1095;50.992;6.798;2024-03-08T12:12:43;100495.41;;;9.55;43.68
2178;BME280;1095;50.992;6.798;2024-03-08T12:15:09;100492.59;;;9.77;44.37
2178;BME280;1095;50.992;6.798;2024-03-08T12:17:37;100491.44;;;9.91;43.89
2178;BME280;1095;50.992;6.798;2024-03-08T12:20:15;100490.44;;;9.82;42.96
2178;BME280;1095;50.992;6.798;2024-03-08T12:22:44;100501.22;;;10.00;43.36
2178;BME280;1095;50.992;6.798;2024-03-08T12:25:11;100481.16;;;9.98;43.48
2178;BME280;1095;50.992;6.798;2024-03-08T12:27:38;100486.25;;;9.90;43.03
2178;BME280;1095;50.992;6.798;2024-03-08T12:30:22;100478.03;;;9.83;43.27
2178;BME280;1095;50.992;6.798;2024-03-08T12:32:54;100463.78;;;10.05;42.56
2178;BME280;1095;50.992;6.798;2024-03-08T12:35:24;100461.00;;;10.06;42.18
2178;BME280;1095;50.992;6.798;2024-03-08T12:37:53;100453.75;;;10.08;42.34
2178;BME280;1095;50.992;6.798;2024-03-08T12:40:26;100446.41;;;10.22;42.48
2178;BME280;1095;50.992;6.798;2024-03-08T12:42:54;100443.00;;;10.41;43.06
2178;BME280;1095;50.992;6.798;2024-03-08T12:45:21;100440.44;;;10.20;44.00
2178;BME280;1095;50.992;6.798;2024-03-08T12:47:51;100433.13;;;10.43;43.06
2178;BME280;1095;50.992;6.798;2024-03-08T12:50:26;100437.41;;;10.34;43.27
2178;BME280;1095;50.992;6.798;2024-03-08T12:52:55;100423.78;;;10.29;42.10
2178;BME280;1095;50.992;6.798;2024-03-08T12:55:25;100418.50;;;10.38;42.45
2178;BME280;1095;50.992;6.798;2024-03-08T12:57:54;100421.56;;;10.53;42.72
2178;BME280;1095;50.992;6.798;2024-03-08T13:00:24;100423.78;;;10.38;42.55
2178;BME280;1095;50.992;6.798;2024-03-08T13:02:53;100417.97;;;10.45;42.16
2178;BME280;1095;50.992;6.798;2024-03-08T13:05:20;100417.91;;;10.35;42.10
2178;BME280;1095;50.992;6.798;2024-03-08T13:07:49;100398.44;;;10.55;42.30
2178;BME280;1095;50.992;6.798;2024-03-08T13:10:16;100401.50;;;10.41;41.74
2178;BME280;1095;50.992;6.798;2024-03-08T13:12:45;100400.81;;;10.39;41.85
2178;BME280;1095;50.992;6.798;2024-03-08T13:15:15;100399.13;;;10.57;41.86
2178;BME280;1095;50.992;6.798;2024-03-08T13:17:45;100395.94;;;10.63;42.00
2178;BME280;1095;50.992;6.798;2024-03-08T13:20:13;100381.88;;;10.73;41.67
2178;BME280;1095;50.992;6.798;2024-03-08T13:22:48;100381.47;;;10.68;41.27
2178;BME280;1095;50.992;6.798;2024-03-08T13:25:16;100380.59;;;10.86;41.72
2178;BME280;1095;50.992;6.798;2024-03-08T13:27:45;100367.06;;;10.90;41.53
2178;BME280;1095;50.992;6.798;2024-03-08T13:30:13;100372.03;;;11.02;41.34
2178;BME280;1095;50.992;6.798;2024-03-08T13:32:43;100372.81;;;10.85;42.27
2178;BME280;1095;50.992;6.798;2024-03-08T13:35:11;100358.72;;;10.94;42.94
2178;BME280;1095;50.992;6.798;2024-03-08T13:37:39;100360.81;;;10.81;40.94
2178;BME280;1095;50.992;6.798;2024-03-08T13:40:07;100347.28;;;10.84;41.89
2178;BME280;1095;50.992;6.798;2024-03-08T13:42:40;100352.56;;;10.84;41.27
2178;BME280;1095;50.992;6.798;2024-03-08T13:45:12;100336.56;;;10.76;41.23
2178;BME280;1095;50.992;6.798;2024-03-08T13:47:42;100342.97;;;10.83;41.87
2178;BME280;1095;50.992;6.798;2024-03-08T13:50:18;100335.97;;;10.92;41.83
2178;BME280;1095;50.992;6.798;2024-03-08T13:52:50;100335.47;;;10.78;41.82